Time;durP1;ratioP1;P1;durP2;ratioP2;P2;SDS_P1;SDS_P2;PMS_P1;PMS_P2;Temp;Humidity;BMP_temperature;BMP_pressure;BME280_temperature;BME280_humidity;BME280_pressure;Samples;Min_cycle;Max_cycle;Signal;HPM_P1;HPM_P2
2021/08/17 00:00:20;;;;;;;;;;;;;;;11.48;85.24;97141.72;30001;983;1880;-65
2021/08/17 00:00:52;;;;;;;;;;;;;;;11.49;85.22;97140.59;30001;982;1867;-66
2021/08/17 00:01:23;;;;;;;;;;;;;;;11.47;85.08;97145.53;30001;982;1876;-65
2021/08/17 00:01:54;;;;;;;;;;;;;;;11.46;85.06;97142.00;30001;982;1885;-68
2021/08/17 00:02:28;;;;;;;;;;;;;;;11.43;84.96;97143.37;30001;982;1881;-63
2021/08/17 00:02:59;;;;;;;;;;;;;;;11.40;85.11;97138.56;30001;982;1885;-63
2021/08/17 00:03:32;;;;;;;;;;;;;;;11.39;85.33;97142.37;30001;983;1880;-62
2021/08/17 00:04:03;;;;;;;;;;;;;;;11.36;85.38;97148.41;30001;983;1884;-65
2021/08/17 00:04:35;;;;;;;;;;;;;;;11.36;85.61;97151.13;30001;983;1880;-64
2021/08/17 00:05:07;;;;;;;;;;;;;;;11.35;85.70;97144.06;30001;983;1884;-63
2021/08/17 00:05:38;;;;;;;;;;;;;;;11.34;85.71;97138.91;30001;983;1880;-63
2021/08/17 00:06:09;;;;;;;;;;;;;;;11.35;85.55;97141.34;30001;983;1867;-63
2021/08/17 00:06:41;;;;;;;;;;;;;;;11.33;85.40;97140.81;30001;983;1876;-63
2021/08/17 00:07:12;;;;;;;;;;;;;;;11.33;85.29;97137.31;30001;983;1884;-63
2021/08/17 00:07:44;;;;;;;;;;;;;;;11.32;85.20;97141.13;30001;982;1880;-62
2021/08/17 00:08:15;;;;;;;;;;;;;;;11.33;85.23;97138.09;30001;982;1884;-64
2021/08/17 00:08:47;;;;;;;;;;;;;;;11.32;85.06;97139.22;30002;982;1863;-62
2021/08/17 00:09:18;;;;;;;;;;;;;;;11.30;85.02;97141.41;30002;982;1880;-63
2021/08/17 00:09:50;;;;;;;;;;;;;;;11.27;85.14;97133.84;30002;982;1880;-62
2021/08/17 00:10:20;;;;;;;;;;;;;;;11.23;85.12;97138.22;30002;982;1885;-63
2021/08/17 00:10:52;;;;;;;;;;;;;;;11.24;85.38;97136.31;30002;983;1880;-63
2021/08/17 00:11:23;;;;;;;;;;;;;;;11.23;85.25;97137.41;30002;983;1884;-63
2021/08/17 00:11:54;;;;;;;;;;;;;;;11.22;85.49;97152.91;30002;983;1862;-64
2021/08/17 00:12:25;;;;;;;;;;;;;;;11.20;85.36;97138.81;30002;983;1880;-64
2021/08/17 00:12:57;;;;;;;;;;;;;;;11.20;85.52;97138.81;30002;983;1762;-62
2021/08/17 00:13:28;;;;;;;;;;;;;;;11.20;85.56;97138.81;30002;983;1880;-63
2021/08/17 00:13:59;;;;;;;;;;;;;;;11.20;85.68;97144.25;30002;983;1880;-64
2021/08/17 00:14:30;;;;;;;;;;;;;;;11.18;85.82;97149.16;30002;983;1884;-64
2021/08/17 00:15:02;;;;;;;;;;;;;;;11.18;86.09;97148.34;30002;982;1880;-65
2021/08/17 00:15:34;;;;;;;;;;;;;;;11.16;85.86;97147.81;30002;982;1885;-63
2021/08/17 00:16:05;;;;;;;;;;;;;;;11.14;86.13;97156.25;30002;982;1791;-63
2021/08/17 00:16:37;;;;;;;;;;;;;;;11.14;86.20;97150.03;30002;982;1885;-67
2021/08/17 00:17:10;;;;;;;;;;;;;;;11.15;85.98;97148.91;30002;982;1863;-64
2021/08/17 00:17:42;;;;;;;;;;;;;;;11.15;85.90;97147.00;30002;982;1880;-63
2021/08/17 00:18:14;;;;;;;;;;;;;;;11.15;85.91;97147.00;30002;982;1880;-63
2021/08/17 00:18:44;;;;;;;;;;;;;;;11.14;85.83;97150.81;30002;983;1884;-63
2021/08/17 00:19:16;;;;;;;;;;;;;;;11.12;85.93;97144.06;30002;983;1880;-63
2021/08/17 00:19:46;;;;;;;;;;;;;;;11.13;86.03;97148.41;30002;983;1884;-55
2021/08/17 00:20:18;;;;;;;;;;;;;;;11.19;85.83;97142.63;30002;983;1880;-66
2021/08/17 00:20:49;;;;;;;;;;;;;;;11.18;85.32;97146.44;30002;983;1867;-64
2021/08/17 00:21:20;;;;;;;;;;;;;;;11.21;85.08;97151.28;30002;983;1875;-65
2021/08/17 00:21:52;;;;;;;;;;;;;;;11.23;85.19;97153.72;30002;983;1884;-62
2021/08/17 00:22:23;;;;;;;;;;;;;;;11.25;85.14;97154.25;30002;983;1880;-63
2021/08/17 00:22:54;;;;;;;;;;;;;;;11.24;85.34;97155.34;30002;982;1884;-64
2021/08/17 00:23:25;;;;;;;;;;;;;;;11.22;85.66;97152.91;30002;982;1881;-62
2021/08/17 00:23:56;;;;;;;;;;;;;;;11.19;86.21;97156.19;30002;982;1885;-62
2021/08/17 00:24:28;;;;;;;;;;;;;;;11.15;86.36;97157.06;30002;956;1906;-61
2021/08/17 00:24:59;;;;;;;;;;;;;;;11.14;86.42;97155.44;30002;982;1867;-62
2021/08/17 00:25:30;;;;;;;;;;;;;;;11.14;86.38;97160.88;30002;982;1876;-61
2021/08/17 00:26:01;;;;;;;;;;;;;;;11.11;86.40;97156.84;30002;983;1884;-64
2021/08/17 00:26:32;;;;;;;;;;;;;;;11.11;86.62;97156.03;30002;983;1880;-63
2021/08/17 00:27:03;;;;;;;;;;;;;;;11.08;86.67;97163.69;30002;983;1884;-64
2021/08/17 00:27:35;;;;;;;;;;;;;;;11.08;86.85;97154.72;30002;983;1880;-62
2021/08/17 00:28:06;;;;;;;;;;;;;;;11.08;86.73;97157.44;30002;983;1884;-62
2021/08/17 00:28:37;;;;;;;;;;;;;;;11.07;86.75;97161.25;30002;983;1880;-63
2021/08/17 00:29:09;;;;;;;;;;;;;;;11.07;86.71;97150.41;30002;983;1884;-62
2021/08/17 00:29:40;;;;;;;;;;;;;;;11.06;86.92;97151.50;30002;983;1863;-62
2021/08/17 00:30:11;;;;;;;;;;;;;;;11.06;87.26;97155.00;30002;982;1880;-62
2021/08/17 00:30:42;;;;;;;;;;;;;;;11.05;87.35;97166.16;30002;982;1880;-63
2021/08/17 00:31:14;;;;;;;;;;;;;;;11.04;87.66;97162.62;30002;982;1885;-62
2021/08/17 00:31:45;;;;;;;;;;;;;;;11.05;87.69;97163.44;30002;982;1881;-63
2021/08/17 00:32:16;;;;;;;;;;;;;;;11.06;87.63;97157.72;30002;982;1885;-62
2021/08/17 00:32:47;;;;;;;;;;;;;;;11.06;87.74;97159.63;30002;982;1881;-62
2021/08/17 00:33:18;;;;;;;;;;;;;;;11.07;87.67;97158.53;30002;982;1885;-63
2021/08/17 00:33:50;;;;;;;;;;;;;;;11.05;87.51;97158.81;30002;983;1880;-64
2021/08/17 00:34:21;;;;;;;;;;;;;;;11.06;87.58;97160.44;30002;983;1884;-62
2021/08/17 00:34:52;;;;;;;;;;;;;;;11.06;87.53;97162.34;30002;983;1862;-63
2021/08/17 00:35:24;;;;;;;;;;;;;;;11.07;87.52;97166.69;30002;983;1880;-62
2021/08/17 00:35:55;;;;;;;;;;;;;;;11.07;87.68;97161.25;30002;983;1880;-63
2021/08/17 00:36:28;;;;;;;;;;;;;;;11.08;87.89;97165.59;30002;983;1884;-62
2021/08/17 00:36:59;;;;;;;;;;;;;;;11.06;88.10;97162.34;30002;983;1880;-62
2021/08/17 00:37:30;;;;;;;;;;;;;;;11.03;88.19;97160.22;30002;985;1876;-61
2021/08/17 00:38:03;;;;;;;;;;;;;;;11.02;88.15;97164.03;30002;982;1885;-63
2021/08/17 00:38:35;;;;;;;;;;;;;;;11.02;88.62;97164.03;30002;982;1863;-62
2021/08/17 00:39:07;;;;;;;;;;;;;;;11.01;88.52;97168.66;30002;982;1881;-63
2021/08/17 00:39:38;;;;;;;;;;;;;;;11.02;88.65;97167.53;30002;982;1880;-64
2021/08/17 00:40:10;;;;;;;;;;;;;;;11.03;88.74;97161.03;30002;983;1884;-61
2021/08/17 00:40:41;;;;;;;;;;;;;;;11.05;88.91;97160.72;30002;983;1880;-63
2021/08/17 00:41:13;;;;;;;;;;;;;;;11.04;88.92;97167.25;30002;983;1867;-63
2021/08/17 00:41:45;;;;;;;;;;;;;;;11.07;88.88;97166.69;30002;983;1875;-63
2021/08/17 00:42:17;;;;;;;;;;;;;;;11.09;89.01;97169.91;30002;983;1884;-62
2021/08/17 00:42:48;;;;;;;;;;;;;;;11.10;88.98;97171.50;30002;983;1880;-65
2021/08/17 00:43:20;;;;;;;;;;;;;;;11.11;88.83;97167.69;30002;983;1884;-62
2021/08/17 00:43:51;;;;;;;;;;;;;;;11.10;88.38;97160.66;30002;983;1880;-65
2021/08/17 00:44:23;;;;;;;;;;;;;;;11.11;88.26;97173.13;30002;983;1885;-62
2021/08/17 00:44:54;;;;;;;;;;;;;;;11.12;87.89;97169.31;30002;983;1863;-63
2021/08/17 00:45:26;;;;;;;;;;;;;;;11.12;87.84;97165.78;30002;982;1817;-63
2021/08/17 00:45:57;;;;;;;;;;;;;;;11.13;87.91;97167.41;30002;982;1880;-62
2021/08/17 00:46:30;;;;;;;;;;;;;;;11.13;87.88;97165.50;30002;982;1867;-63
2021/08/17 00:47:01;;;;;;;;;;;;;;;11.16;87.46;97166.84;30002;982;1876;-62
2021/08/17 00:47:32;;;;;;;;;;;;;;;11.15;86.83;97167.94;30002;982;1885;-64
2021/08/17 00:48:03;;;;;;;;;;;;;;;11.17;86.63;97163.84;30002;983;1880;-64
2021/08/17 00:48:36;;;;;;;;;;;;;;;11.19;86.45;97169.78;30002;983;1884;-64
2021/08/17 00:49:07;;;;;;;;;;;;;;;11.20;86.61;97171.41;30002;983;1880;-64
2021/08/17 00:49:38;;;;;;;;;;;;;;;11.22;86.18;97169.19;30002;983;1884;-74
2021/08/17 00:50:09;;;;;;;;;;;;;;;11.21;85.43;97173.03;30002;983;1880;-63
2021/08/17 00:50:40;;;;;;;;;;;;;;;11.24;85.50;97172.44;30002;983;1884;-68
2021/08/17 00:51:11;;;;;;;;;;;;;;;11.25;85.01;97174.06;30002;983;1880;-63
2021/08/17 00:51:43;;;;;;;;;;;;;;;11.21;84.23;97167.59;30002;983;1867;-62
2021/08/17 00:52:15;;;;;;;;;;;;;;;11.22;84.35;97174.63;30002;983;1876;-65
2021/08/17 00:52:47;;;;;;;;;;;;;;;11.23;84.59;97168.09;30002;982;1885;-62
2021/08/17 00:53:19;;;;;;;;;;;;;;;11.24;84.66;97172.44;30002;982;1880;-64
2021/08/17 00:53:53;;;;;;;;;;;;;;;11.23;84.93;97181.69;30002;982;1885;-62
2021/08/17 00:54:24;;;;;;;;;;;;;;;11.24;85.11;97177.06;30002;982;1881;-65
2021/08/17 00:54:55;;;;;;;;;;;;;;;11.24;85.19;97167.00;30002;982;1885;-64
2021/08/17 00:55:27;;;;;;;;;;;;;;;11.21;85.02;97175.72;30002;983;1880;-67
2021/08/17 00:55:59;;;;;;;;;;;;;;;11.19;84.61;97169.78;30002;983;1884;-64
2021/08/17 00:56:31;;;;;;;;;;;;;;;11.26;84.74;97175.69;30002;983;1880;-73
2021/08/17 00:57:03;;;;;;;;;;;;;;;11.29;84.22;97171.56;30002;983;1867;-66
2021/08/17 00:57:34;;;;;;;;;;;;;;;11.29;83.70;97180.53;30002;983;1858;-63
2021/08/17 00:58:05;;;;;;;;;;;;;;;11.28;83.69;97173.47;30002;983;1884;-64
2021/08/17 00:58:38;;;;;;;;;;;;;;;11.28;83.74;97176.19;30002;983;1880;-67
2021/08/17 00:59:09;;;;;;;;;;;;;;;11.27;83.75;97173.78;30002;983;1885;-60
2021/08/17 00:59:41;;;;;;;;;;;;;;;11.27;83.73;97177.31;30002;983;1880;-62
2021/08/17 01:00:14;;;;;;;;;;;;;;;11.32;82.17;97173.72;30002;983;1884;-65
2021/08/17 01:00:46;;;;;;;;;;;;;;;11.34;80.98;97175.03;30001;982;1880;-73
2021/08/17 01:01:19;;;;;;;;;;;;;;;11.35;81.36;97171.22;30001;982;1885;-64
2021/08/17 01:01:50;;;;;;;;;;;;;;;11.34;81.59;97177.75;30001;982;1880;-64
2021/08/17 01:02:21;;;;;;;;;;;;;;;11.32;82.46;97169.09;30001;982;1867;-64
2021/08/17 01:02:52;;;;;;;;;;;;;;;11.28;82.86;97168.06;30001;983;1858;-63
2021/08/17 01:03:27;;;;;;;;;;;;;;;11.26;83.23;97170.25;30002;983;1805;-64
2021/08/17 01:03:58;;;;;;;;;;;;;;;11.25;83.31;97170.53;30001;983;1880;-51
2021/08/17 01:04:29;;;;;;;;;;;;;;;11.22;83.71;97169.19;30001;983;1867;-63
2021/08/17 01:05:02;;;;;;;;;;;;;;;11.20;83.96;97165.97;30001;983;1876;-64
2021/08/17 01:05:33;;;;;;;;;;;;;;;11.19;84.20;97168.97;30001;983;1884;-64
2021/08/17 01:06:05;;;;;;;;;;;;;;;11.19;84.58;97175.22;30001;983;1880;-64
2021/08/17 01:06:37;;;;;;;;;;;;;;;11.17;84.17;97166.53;30001;983;1884;-51
2021/08/17 01:07:09;;;;;;;;;;;;;;;11.16;83.82;97167.66;30001;983;1863;-63
2021/08/17 01:07:40;;;;;;;;;;;;;;;11.14;83.80;97167.13;30001;983;1880;-65
2021/08/17 01:08:12;;;;;;;;;;;;;;;11.15;83.99;97167.94;30001;982;1863;-65
2021/08/17 01:08:42;;;;;;;;;;;;;;;11.15;84.28;97171.47;30001;982;1880;-73
2021/08/17 01:09:13;;;;;;;;;;;;;;;11.18;83.28;97172.78;30001;982;1880;-65
2021/08/17 01:09:45;;;;;;;;;;;;;;;11.18;82.82;97168.16;30001;982;1885;-63
2021/08/17 01:10:16;;;;;;;;;;;;;;;11.21;82.84;97172.22;30001;982;1881;-71
2021/08/17 01:10:47;;;;;;;;;;;;;;;11.22;82.65;97174.63;30001;983;1884;-77
2021/08/17 01:11:19;;;;;;;;;;;;;;;11.26;81.59;97175.69;30001;983;1862;-65
2021/08/17 01:11:50;;;;;;;;;;;;;;;11.28;81.34;97170.78;30001;983;1880;-67
2021/08/17 01:12:23;;;;;;;;;;;;;;;11.26;80.26;97180.31;30001;983;1880;-63
2021/08/17 01:12:55;;;;;;;;;;;;;;;11.24;80.95;97172.44;30001;983;1867;-64
2021/08/17 01:13:28;;;;;;;;;;;;;;;11.24;81.21;97177.88;30001;983;1876;-71
2021/08/17 01:13:59;;;;;;;;;;;;;;;11.22;81.50;97174.63;30001;983;1884;-69
2021/08/17 01:14:31;;;;;;;;;;;;;;;11.20;81.80;97171.41;30001;983;1880;-66
2021/08/17 01:15:03;;;;;;;;;;;;;;;11.18;81.63;97181.75;30001;982;1885;-68
2021/08/17 01:15:35;;;;;;;;;;;;;;;11.15;81.83;97184.22;30001;982;1862;-66
2021/08/17 01:16:06;;;;;;;;;;;;;;;11.12;82.38;97174.75;30001;982;1880;-66
2021/08/17 01:16:38;;;;;;;;;;;;;;;11.11;82.40;97184.00;30001;982;1880;-65
2021/08/17 01:17:09;;;;;;;;;;;;;;;11.11;82.70;97183.19;30001;982;1885;-65
2021/08/17 01:17:44;;;;;;;;;;;;;;;11.12;82.76;97184.81;30001;982;1880;-65
2021/08/17 01:18:16;;;;;;;;;;;;;;;11.10;82.24;97185.09;30001;983;1867;-69
2021/08/17 01:18:48;;;;;;;;;;;;;;;11.07;82.04;97183.78;30002;983;1810;-71
2021/08/17 01:19:21;;;;;;;;;;;;;;;11.13;81.88;97183.72;30001;983;1884;-66
2021/08/17 01:19:53;;;;;;;;;;;;;;;11.17;81.36;97187.47;30001;983;1880;-68
2021/08/17 01:20:25;;;;;;;;;;;;;;;11.18;81.49;97187.19;30001;983;1884;-69
2021/08/17 01:20:58;;;;;;;;;;;;;;;11.16;81.51;97186.66;30001;983;1862;-67
2021/08/17 01:21:30;;;;;;;;;;;;;;;11.16;81.83;97185.84;30001;983;1880;-65
2021/08/17 01:22:02;;;;;;;;;;;;;;;11.11;82.06;97189.41;30001;983;1880;-65
2021/08/17 01:22:33;;;;;;;;;;;;;;;11.05;82.56;97191.41;30001;982;1884;-65
2021/08/17 01:23:04;;;;;;;;;;;;;;;11.00;83.12;97186.03;30001;982;1880;-64
2021/08/17 01:23:36;;;;;;;;;;;;;;;11.01;82.79;97189.56;30001;982;1885;-67
2021/08/17 01:24:08;;;;;;;;;;;;;;;11.03;82.08;97190.88;30001;982;1880;-69
2021/08/17 01:24:39;;;;;;;;;;;;;;;11.03;82.15;97188.19;30001;982;1885;-50
2021/08/17 01:25:11;;;;;;;;;;;;;;;11.03;82.07;97198.22;30001;982;1881;-66
2021/08/17 01:25:42;;;;;;;;;;;;;;;11.04;82.01;97199.84;30001;983;1884;-65
2021/08/17 01:26:13;;;;;;;;;;;;;;;11.01;82.36;97195.00;30001;983;1862;-73
2021/08/17 01:26:45;;;;;;;;;;;;;;;11.01;82.05;97195.00;30001;983;1880;-64
2021/08/17 01:27:16;;;;;;;;;;;;;;;10.98;81.99;97195.56;30001;983;1880;-64
2021/08/17 01:27:47;;;;;;;;;;;;;;;10.96;82.31;97198.56;30001;983;1884;-65
2021/08/17 01:28:19;;;;;;;;;;;;;;;10.96;82.87;97197.75;30001;983;1880;-65
2021/08/17 01:28:50;;;;;;;;;;;;;;;10.95;82.69;97194.22;30001;983;1884;-65
2021/08/17 01:29:23;;;;;;;;;;;;;;;10.96;82.61;97203.19;30001;983;1880;-63
2021/08/17 01:29:55;;;;;;;;;;;;;;;10.92;82.77;97197.50;30001;982;1884;-65
2021/08/17 01:30:26;;;;;;;;;;;;;;;10.90;82.77;97202.41;30001;982;1863;-67
2021/08/17 01:31:01;;;;;;;;;;;;;;;10.90;82.20;97205.13;30001;982;1880;-64
2021/08/17 01:31:33;;;;;;;;;;;;;;;10.92;81.99;97207.56;30001;982;1880;-76
2021/08/17 01:32:07;;;;;;;;;;;;;;;10.92;81.81;97207.56;30001;982;1867;-65
2021/08/17 01:32:38;;;;;;;;;;;;;;;10.95;81.92;97207.81;30001;982;1876;-65
2021/08/17 01:33:10;;;;;;;;;;;;;;;10.92;82.08;97211.09;30001;983;1884;-67
2021/08/17 01:33:41;;;;;;;;;;;;;;;10.92;82.11;97210.28;30001;983;1880;-64
2021/08/17 01:34:12;;;;;;;;;;;;;;;10.91;82.09;97211.37;30001;983;1884;-70
2021/08/17 01:34:43;;;;;;;;;;;;;;;10.99;81.41;97210.75;30001;983;1880;-67
2021/08/17 01:35:14;;;;;;;;;;;;;;;11.04;80.85;97221.56;30001;983;1884;-69
2021/08/17 01:35:45;;;;;;;;;;;;;;;11.05;80.92;97206.91;30001;983;1880;-69
2021/08/17 01:36:16;;;;;;;;;;;;;;;11.04;80.49;97221.56;30001;983;1867;-74
2021/08/17 01:36:47;;;;;;;;;;;;;;;11.03;80.09;97219.94;30001;983;1876;-65
2021/08/17 01:37:19;;;;;;;;;;;;;;;11.05;79.46;97215.03;30001;982;1885;-67
2021/08/17 01:37:50;;;;;;;;;;;;;;;11.06;79.67;97214.75;30001;982;1880;-70
2021/08/17 01:38:21;;;;;;;;;;;;;;;11.05;79.93;97217.75;30001;982;1884;-66
2021/08/17 01:38:56;;;;;;;;;;;;;;;11.00;80.04;97215.09;30001;982;1880;-66
2021/08/17 01:39:28;;;;;;;;;;;;;;;11.00;80.30;97215.91;30001;982;1885;-52
2021/08/17 01:40:09;;;;;;;;;;;;;;;11.05;79.05;97212.31;30001;982;1881;-64
2021/08/17 01:40:40;;;;;;;;;;;;;;;11.03;78.99;97214.53;30001;983;1884;-53
2021/08/17 01:41:11;;;;;;;;;;;;;;;11.01;79.22;97219.44;30001;983;1862;-76
2021/08/17 01:41:43;;;;;;;;;;;;;;;10.96;79.10;97211.31;30001;986;1880;-66
2021/08/17 01:42:18;;;;;;;;;;;;;;;10.96;79.50;97217.56;30001;983;1880;-69
2021/08/17 01:42:52;;;;;;;;;;;;;;;10.95;79.90;97218.66;30001;983;1884;-86
2021/08/17 01:43:23;;;;;;;;;;;;;;;10.97;79.70;97216.47;30001;983;1880;-78
2021/08/17 01:43:55;;;;;;;;;;;;;;;10.98;79.37;97217.28;30001;983;1885;-51
2021/08/17 01:44:26;;;;;;;;;;;;;;;10.97;79.94;97221.09;30001;983;1881;-78
2021/08/17 01:44:57;;;;;;;;;;;;;;;10.98;79.27;97223.53;30001;982;1885;-66
2021/08/17 01:45:28;;;;;;;;;;;;;;;10.97;79.55;97221.09;30001;982;1881;-55
2021/08/17 01:46:00;;;;;;;;;;;;;;;10.97;79.67;97221.09;30001;982;1885;-67
2021/08/17 01:46:31;;;;;;;;;;;;;;;10.98;79.33;97222.72;30001;982;1863;-69
2021/08/17 01:47:03;;;;;;;;;;;;;;;10.96;79.71;97224.91;30001;982;1880;-69
2021/08/17 01:47:34;;;;;;;;;;;;;;;10.94;80.01;97221.66;30001;983;1880;-67
2021/08/17 01:48:06;;;;;;;;;;;;;;;10.94;80.28;97221.66;30001;983;1867;-64
2021/08/17 01:48:37;;;;;;;;;;;;;;;10.92;80.21;97223.84;30001;983;1875;-67
2021/08/17 01:49:08;;;;;;;;;;;;;;;10.98;79.83;97228.16;30001;983;1867;-68
2021/08/17 01:49:40;;;;;;;;;;;;;;;10.98;79.49;97228.16;30001;983;1876;-66
2021/08/17 01:50:12;;;;;;;;;;;;;;;10.98;79.64;97223.53;30001;983;1884;-65
2021/08/17 01:50:43;;;;;;;;;;;;;;;11.01;79.23;97233.00;30001;983;1880;-63
2021/08/17 01:51:14;;;;;;;;;;;;;;;11.02;78.96;97226.47;30001;983;1884;-66
2021/08/17 01:51:47;;;;;;;;;;;;;;;11.03;79.10;97230.81;30001;983;1880;-70
2021/08/17 01:52:18;;;;;;;;;;;;;;;11.01;79.34;97236.53;30001;982;1885;-68
2021/08/17 01:52:49;;;;;;;;;;;;;;;11.01;79.48;97231.09;30001;982;1880;-72
2021/08/17 01:53:21;;;;;;;;;;;;;;;10.98;79.51;97233.56;30001;972;1904;-69
2021/08/17 01:53:52;;;;;;;;;;;;;;;10.99;79.31;97235.19;30001;986;1881;-67
2021/08/17 01:54:23;;;;;;;;;;;;;;;10.96;79.66;97233.06;30001;972;1885;-67
2021/08/17 01:54:55;;;;;;;;;;;;;;;10.98;78.87;97233.56;30001;983;1875;-66
2021/08/17 01:55:26;;;;;;;;;;;;;;;10.93;79.15;97236.34;30001;983;1884;-68
2021/08/17 01:55:58;;;;;;;;;;;;;;;10.90;79.37;97231.47;30001;983;1880;-62
2021/08/17 01:56:29;;;;;;;;;;;;;;;10.86;79.43;97231.22;30001;983;1884;-71
2021/08/17 01:57:00;;;;;;;;;;;;;;;10.86;79.65;97233.13;30001;983;1880;-67
2021/08/17 01:57:31;;;;;;;;;;;;;;;10.85;79.82;97234.22;30001;983;1885;-69
2021/08/17 01:58:03;;;;;;;;;;;;;;;10.82;80.19;97229.38;30001;983;1880;-67
2021/08/17 01:58:33;;;;;;;;;;;;;;;10.82;79.67;97232.91;30001;983;1885;-68
2021/08/17 01:59:05;;;;;;;;;;;;;;;10.86;79.52;97235.84;30001;983;1848;-57
2021/08/17 01:59:36;;;;;;;;;;;;;;;10.95;78.90;97236.84;30001;983;1880;-66
2021/08/17 02:00:09;;;;;;;;;;;;;;;10.94;78.59;97246.09;30001;982;1880;-69
2021/08/17 02:00:40;;;;;;;;;;;;;;;10.92;78.56;97238.25;30001;982;1885;-65
2021/08/17 02:01:11;;;;;;;;;;;;;;;10.92;79.06;97237.44;30001;982;1880;-67
2021/08/17 02:01:44;;;;;;;;;;;;;;;10.86;79.14;97238.56;30001;982;1867;-73
2021/08/17 02:02:15;;;;;;;;;;;;;;;10.84;79.45;97238.03;30001;982;1876;-72
2021/08/17 02:02:46;;;;;;;;;;;;;;;10.79;79.96;97241.59;30001;986;1884;-66
2021/08/17 02:03:16;;;;;;;;;;;;;;;10.74;80.25;97247.09;30001;986;1871;-70
2021/08/17 02:03:48;;;;;;;;;;;;;;;10.69;80.24;97241.72;30001;983;1884;-71
2021/08/17 02:04:19;;;;;;;;;;;;;;;10.74;80.01;97245.19;30001;983;1787;-68
2021/08/17 02:04:50;;;;;;;;;;;;;;;10.79;79.26;97236.19;30001;983;1884;-62
2021/08/17 02:05:23;;;;;;;;;;;;;;;10.83;79.06;97244.56;30001;983;1880;-69
2021/08/17 02:05:54;;;;;;;;;;;;;;;10.84;79.29;97238.84;30001;983;1884;-71
2021/08/17 02:06:26;;;;;;;;;;;;;;;10.84;79.46;97240.75;30001;983;1862;-67
2021/08/17 02:06:57;;;;;;;;;;;;;;;10.82;79.74;97241.03;30001;983;1880;-70
2021/08/17 02:07:28;;;;;;;;;;;;;;;10.85;79.52;97239.66;30001;982;1880;-69
2021/08/17 02:08:02;;;;;;;;;;;;;;;10.83;79.21;97248.09;30001;982;1885;-75
2021/08/17 02:08:33;;;;;;;;;;;;;;;10.79;79.64;97247.03;30001;982;1880;-67
2021/08/17 02:09:04;;;;;;;;;;;;;;;10.75;79.96;97246.78;30001;982;1884;-71
2021/08/17 02:09:35;;;;;;;;;;;;;;;10.78;80.07;97244.59;30001;982;1880;-69
2021/08/17 02:10:08;;;;;;;;;;;;;;;10.73;80.49;97243.59;30001;983;1884;-70
2021/08/17 02:10:39;;;;;;;;;;;;;;;10.68;80.93;97240.91;30001;983;1880;-70
2021/08/17 02:11:10;;;;;;;;;;;;;;;10.65;80.97;97235.25;30001;983;1884;-67
2021/08/17 02:11:41;;;;;;;;;;;;;;;10.67;80.96;97239.28;30001;983;1862;-66
2021/08/17 02:12:12;;;;;;;;;;;;;;;10.64;80.40;97239.06;30001;983;1880;-63
2021/08/17 02:12:43;;;;;;;;;;;;;;;10.66;80.65;97239.56;30001;983;1880;-67
2021/08/17 02:13:16;;;;;;;;;;;;;;;10.67;80.57;97241.19;30001;983;1884;-68
2021/08/17 02:13:48;;;;;;;;;;;;;;;10.65;80.58;97240.66;30001;983;1880;-68
2021/08/17 02:14:19;;;;;;;;;;;;;;;10.63;80.85;97238.25;30001;983;1884;-67
2021/08/17 02:14:50;;;;;;;;;;;;;;;10.59;81.07;97237.19;30001;983;1880;-72
2021/08/17 02:15:21;;;;;;;;;;;;;;;10.60;80.89;97233.38;30001;982;1885;-68
2021/08/17 02:15:52;;;;;;;;;;;;;;;10.56;81.08;97229.59;30001;982;1880;-69
2021/08/17 02:16:22;;;;;;;;;;;;;;;10.61;80.92;97237.72;30001;982;1885;-70
2021/08/17 02:16:54;;;;;;;;;;;;;;;10.59;80.83;97237.19;30001;982;1863;-67
2021/08/17 02:17:25;;;;;;;;;;;;;;;10.55;81.11;97233.41;30001;982;1880;-66
2021/08/17 02:17:57;;;;;;;;;;;;;;;10.52;81.54;97231.28;30001;983;1880;-67
2021/08/17 02:18:30;;;;;;;;;;;;;;;10.47;81.81;97236.72;30001;974;1901;-67
2021/08/17 02:19:01;;;;;;;;;;;;;;;10.44;82.06;97234.59;30001;983;1880;-67
2021/08/17 02:19:32;;;;;;;;;;;;;;;10.39;82.07;97242.78;30001;983;1884;-66
2021/08/17 02:20:04;;;;;;;;;;;;;;;10.37;82.62;97240.34;30001;967;1896;-66
2021/08/17 02:20:35;;;;;;;;;;;;;;;10.35;82.58;97241.72;30001;983;1885;-67
2021/08/17 02:21:07;;;;;;;;;;;;;;;10.33;82.79;97243.91;30001;983;1880;-66
2021/08/17 02:21:38;;;;;;;;;;;;;;;10.29;82.98;97243.66;30001;982;1885;-67
2021/08/17 02:22:10;;;;;;;;;;;;;;;10.27;83.72;97247.75;30001;982;1863;-53
2021/08/17 02:22:41;;;;;;;;;;;;;;;10.25;83.74;97241.78;30001;982;1880;-67
2021/08/17 02:23:12;;;;;;;;;;;;;;;10.22;83.89;97242.34;30001;982;1881;-66
2021/08/17 02:23:43;;;;;;;;;;;;;;;10.20;84.03;97258.09;30001;982;1885;-67
2021/08/17 02:24:15;;;;;;;;;;;;;;;10.17;84.02;97255.91;30001;982;1881;-76
2021/08/17 02:24:47;;;;;;;;;;;;;;;10.16;84.21;97257.00;30001;982;1885;-52
2021/08/17 02:25:18;;;;;;;;;;;;;;;10.16;84.37;97254.28;30001;983;1880;-66
2021/08/17 02:25:49;;;;;;;;;;;;;;;10.15;84.29;97258.09;30001;983;1884;-66
2021/08/17 02:26:20;;;;;;;;;;;;;;;10.16;84.63;97257.00;30001;983;1880;-65
2021/08/17 02:26:51;;;;;;;;;;;;;;;10.14;84.55;97259.19;30001;983;1884;-67
2021/08/17 02:27:22;;;;;;;;;;;;;;;10.12;84.81;97264.06;30001;983;1862;-66
2021/08/17 02:27:53;;;;;;;;;;;;;;;10.11;85.26;97270.59;30001;983;1880;-66
2021/08/17 02:28:25;;;;;;;;;;;;;;;10.10;85.30;97264.34;30001;983;1880;-66
2021/08/17 02:28:56;;;;;;;;;;;;;;;10.08;85.19;97275.47;30001;983;1885;-65
2021/08/17 02:29:27;;;;;;;;;;;;;;;10.07;85.35;97264.91;30001;982;1880;-70
2021/08/17 02:29:58;;;;;;;;;;;;;;;10.08;85.36;97264.63;30001;982;1885;-53
2021/08/17 02:30:29;;;;;;;;;;;;;;;10.06;85.00;97272.22;30001;982;1863;-66
2021/08/17 02:31:00;;;;;;;;;;;;;;;10.06;85.13;97272.22;30001;982;1881;-66
2021/08/17 02:31:31;;;;;;;;;;;;;;;10.07;85.64;97276.56;30001;982;1881;-66
2021/08/17 02:32:03;;;;;;;;;;;;;;;10.05;85.84;97270.59;30001;982;1885;-53
2021/08/17 02:32:34;;;;;;;;;;;;;;;10.05;85.98;97275.22;30001;983;1879;-65
2021/08/17 02:33:05;;;;;;;;;;;;;;;10.04;86.12;97273.63;30001;983;1884;-65
2021/08/17 02:33:36;;;;;;;;;;;;;;;10.03;86.23;97277.44;30001;983;1880;-53
2021/08/17 02:34:08;;;;;;;;;;;;;;;10.00;86.27;97275.28;30001;983;1884;-67
2021/08/17 02:34:39;;;;;;;;;;;;;;;9.94;86.73;97269.06;30001;983;1880;-54
2021/08/17 02:35:10;;;;;;;;;;;;;;;9.92;86.93;97271.25;30001;983;1885;-66
2021/08/17 02:35:42;;;;;;;;;;;;;;;9.90;86.91;97273.41;30001;983;1862;-67
2021/08/17 02:36:16;;;;;;;;;;;;;;;9.88;86.59;97278.31;30001;983;1880;-65
2021/08/17 02:36:48;;;;;;;;;;;;;;;9.86;86.68;97272.34;30001;973;1897;-67
2021/08/17 02:37:19;;;;;;;;;;;;;;;9.83;86.83;97278.31;30001;982;1885;-67
2021/08/17 02:37:50;;;;;;;;;;;;;;;9.84;87.02;97274.53;30001;982;1820;-54
2021/08/17 02:38:21;;;;;;;;;;;;;;;9.86;87.21;97277.78;30001;982;1885;-66
2021/08/17 02:38:53;;;;;;;;;;;;;;;9.85;87.56;97278.88;30001;982;1881;-66
2021/08/17 02:39:24;;;;;;;;;;;;;;;9.85;87.67;97276.16;30001;982;1885;-66
2021/08/17 02:39:55;;;;;;;;;;;;;;;9.84;87.90;97274.53;30001;982;1881;-54
2021/08/17 02:40:27;;;;;;;;;;;;;;;9.81;87.67;97279.69;30001;983;1884;-65
2021/08/17 02:40:59;;;;;;;;;;;;;;;9.80;87.73;97273.47;30001;983;1862;-68
2021/08/17 02:41:30;;;;;;;;;;;;;;;9.80;87.81;97278.88;30001;983;1880;-66
2021/08/17 02:42:02;;;;;;;;;;;;;;;9.80;87.82;97270.75;30001;983;1880;-67
2021/08/17 02:42:35;;;;;;;;;;;;;;;9.80;87.92;97278.06;30001;983;1867;-67
2021/08/17 02:43:07;;;;;;;;;;;;;;;9.80;87.90;97273.47;30001;983;1876;-67
2021/08/17 02:43:38;;;;;;;;;;;;;;;9.79;87.53;97281.88;30001;983;1885;-53
2021/08/17 02:44:09;;;;;;;;;;;;;;;9.77;87.84;97281.34;30001;983;1880;-53
2021/08/17 02:44:40;;;;;;;;;;;;;;;9.76;88.01;97277.81;30001;982;1885;-66
2021/08/17 02:45:11;;;;;;;;;;;;;;;9.75;88.18;97284.31;30001;982;1881;-66
2021/08/17 02:45:42;;;;;;;;;;;;;;;9.73;88.60;97273.75;30001;982;1885;-67
2021/08/17 02:46:14;;;;;;;;;;;;;;;9.71;88.74;97267.81;30001;982;1863;-66
2021/08/17 02:46:45;;;;;;;;;;;;;;;9.72;88.74;97268.62;30002;783;1014;-53
2021/08/17 02:47:16;;;;;;;;;;;;;;;9.72;89.00;97272.13;30001;983;1788;-67
2021/08/17 02:47:47;;;;;;;;;;;;;;;9.74;88.93;97274.56;30001;983;1884;-67
2021/08/17 02:48:19;;;;;;;;;;;;;;;9.74;88.86;97269.97;30001;986;1879;-66
2021/08/17 02:48:50;;;;;;;;;;;;;;;9.75;88.78;97270.78;30001;983;1884;-54